createdAt,value
2022-08-14T00:02:24.685Z,3.73
2022-08-14T00:04:55.090Z,3.33
2022-08-14T00:07:23.177Z,3.53
2022-08-14T00:10:01.576Z,3.50
2022-08-14T00:12:42.718Z,3.50
2022-08-14T00:15:19.577Z,3.43
2022-08-14T00:17:53.425Z,3.30
2022-08-14T00:20:31.021Z,3.50
2022-08-14T00:23:16.866Z,3.60
2022-08-14T00:25:53.772Z,3.90
2022-08-14T00:28:29.231Z,3.33
2022-08-14T00:31:02.649Z,3.40
2022-08-14T00:33:50.442Z,3.10
2022-08-14T00:36:35.716Z,3.60
2022-08-14T00:39:06.516Z,3.30
2022-08-14T00:41:39.007Z,3.13
2022-08-14T00:44:08.429Z,3.73
2022-08-14T00:46:37.156Z,3.40
2022-08-14T00:49:05.918Z,3.67
2022-08-14T00:51:34.556Z,4.03
2022-08-14T00:54:11.062Z,3.60
2022-08-14T00:56:49.731Z,3.50
2022-08-14T00:59:18.625Z,3.43
2022-08-14T01:01:46.752Z,3.53
2022-08-14T01:04:52.188Z,3.90
2022-08-14T01:07:08.144Z,3.53
2022-08-14T01:09:37.573Z,3.57
2022-08-14T01:12:07.813Z,3.60
2022-08-14T01:14:36.821Z,4.00
2022-08-14T01:17:05.361Z,3.80
2022-08-14T01:19:54.465Z,3.80
2022-08-14T01:22:26.606Z,3.77
2022-08-14T01:24:55.555Z,3.53
2022-08-14T01:27:25.670Z,3.80
2022-08-14T01:30:03.311Z,3.60
2022-08-14T01:32:37.347Z,3.57
2022-08-14T01:35:18.269Z,3.60
2022-08-14T01:37:58.752Z,3.40
2022-08-14T01:40:37.247Z,3.80
2022-08-14T01:43:14.552Z,3.70
2022-08-14T01:45:42.837Z,3.90
2022-08-14T01:48:20.793Z,3.80
2022-08-14T01:50:49.442Z,4.03
2022-08-14T01:53:19.809Z,3.97
2022-08-14T01:55:51.464Z,3.67
2022-08-14T01:58:28.489Z,3.90
2022-08-14T02:00:58.413Z,3.67
2022-08-14T02:03:31.254Z,3.70
2022-08-14T02:05:59.575Z,3.70
2022-08-14T02:08:34.681Z,3.90
2022-08-14T02:11:22.042Z,3.87
2022-08-14T02:13:52.935Z,3.80
2022-08-14T02:16:25.243Z,4.07
2022-08-14T02:18:56.330Z,3.83
2022-08-14T02:21:26.872Z,3.93
2022-08-14T02:23:57.381Z,3.90
2022-08-14T02:26:29.583Z,3.87
2022-08-14T02:29:03.205Z,3.97
2022-08-14T02:31:42.365Z,4.03
2022-08-14T02:34:21.935Z,3.83
2022-08-14T02:37:05.467Z,3.67
2022-08-14T02:39:39.476Z,4.00
2022-08-14T02:42:13.159Z,3.87
2022-08-14T02:44:42.053Z,4.13
2022-08-14T02:47:15.068Z,4.23
2022-08-14T02:49:50.585Z,4.10
2022-08-14T02:52:55.589Z,4.30
2022-08-14T02:55:11.898Z,4.00
2022-08-14T02:57:44.284Z,4.27
2022-08-14T03:00:18.668Z,3.80
2022-08-14T03:02:56.171Z,4.17
2022-08-14T03:05:32.862Z,4.33
2022-08-14T03:08:08.581Z,4.10
2022-08-14T03:10:41.852Z,4.37
2022-08-14T03:13:19.449Z,4.37
2022-08-14T03:15:55.873Z,4.20
2022-08-14T03:18:32.119Z,3.97
2022-08-14T03:21:02.811Z,4.30
2022-08-14T03:23:34.049Z,4.70
2022-08-14T03:26:08.471Z,4.70
2022-08-14T03:28:36.634Z,4.27
2022-08-14T03:31:08.265Z,5.00
2022-08-14T03:33:40.712Z,4.57
2022-08-14T03:37:28.516Z,4.70
2022-08-14T03:39:12.960Z,4.87
2022-08-14T03:41:45.230Z,4.40
2022-08-14T03:45:26.035Z,4.90
2022-08-14T03:47:00.288Z,4.53
2022-08-14T03:49:30.972Z,4.90
2022-08-14T03:52:01.069Z,4.97
2022-08-14T03:54:30.182Z,4.50
2022-08-14T03:57:02.703Z,5.20
2022-08-14T03:59:31.463Z,5.00
2022-08-14T04:02:02.121Z,4.90
2022-08-14T04:04:30.521Z,4.70
2022-08-14T04:06:59.945Z,5.07
2022-08-14T04:09:27.652Z,5.17
2022-08-14T04:11:56.127Z,4.97
2022-08-14T04:14:26.787Z,4.63
2022-08-14T04:16:54.730Z,4.83
2022-08-14T04:19:23.693Z,5.20
2022-08-14T04:22:03.363Z,4.87
2022-08-14T04:24:37.647Z,4.63
2022-08-14T04:27:06.325Z,4.93
2022-08-14T04:29:39.505Z,4.90
2022-08-14T04:33:02.794Z,4.50
2022-08-14T04:34:56.663Z,5.10
2022-08-14T04:37:43.090Z,4.87
2022-08-14T04:40:29.350Z,4.57
2022-08-14T04:43:17.124Z,4.80
2022-08-14T04:45:50.999Z,4.30
2022-08-14T04:48:39.038Z,4.67
2022-08-14T04:51:10.347Z,4.53
2022-08-14T04:53:43.386Z,4.73
2022-08-14T04:56:31.133Z,4.90
2022-08-14T04:59:05.118Z,5.17
2022-08-14T05:01:45.274Z,4.93
2022-08-14T05:04:20.157Z,4.97
2022-08-14T05:06:49.623Z,5.23
2022-08-14T05:09:21.898Z,5.00
2022-08-14T05:11:49.816Z,4.83
2022-08-14T05:14:46.703Z,4.90
2022-08-14T05:17:09.028Z,5.03
2022-08-14T05:19:44.734Z,5.20
2022-08-14T05:22:27.203Z,5.50
2022-08-14T05:24:55.215Z,5.10
2022-08-14T05:27:24.038Z,4.90
2022-08-14T05:29:56.952Z,5.33
2022-08-14T05:32:27.764Z,5.77
2022-08-14T05:34:57.951Z,5.53
2022-08-14T05:37:26.541Z,5.10
2022-08-14T05:39:54.331Z,5.50
2022-08-14T05:42:29.470Z,4.97
2022-08-14T05:45:00.147Z,5.70
2022-08-14T05:47:38.997Z,5.40
2022-08-14T05:50:17.062Z,5.37
2022-08-14T05:52:45.841Z,5.67
2022-08-14T05:55:13.557Z,5.40
2022-08-14T05:57:48.944Z,5.37
2022-08-14T06:00:28.167Z,5.50
2022-08-14T06:02:58.280Z,5.28
2022-08-14T06:05:29.467Z,5.30
2022-08-14T06:07:57.924Z,5.07
2022-08-14T06:10:28.381Z,5.20
2022-08-14T06:12:57.901Z,5.05
2022-08-14T06:15:29.920Z,4.95
2022-08-14T06:18:00.671Z,4.97
2022-08-14T06:20:30.421Z,5.38
2022-08-14T06:22:59.380Z,5.13
2022-08-14T06:25:27.800Z,5.10
2022-08-14T06:27:55.640Z,4.97
2022-08-14T06:30:41.886Z,5.53
2022-08-14T06:33:16.498Z,4.85
2022-08-14T06:35:46.802Z,5.00
2022-08-14T06:38:17.503Z,5.38
2022-08-14T06:40:46.460Z,5.45
2022-08-14T06:43:15.695Z,5.47
2022-08-14T06:45:50.175Z,5.30
2022-08-14T06:48:24.201Z,5.43
2022-08-14T06:50:53.175Z,5.45
2022-08-14T06:53:21.744Z,5.35
2022-08-14T06:55:58.544Z,5.35
2022-08-14T06:58:31.681Z,5.43
2022-08-14T07:01:25.083Z,5.88
2022-08-14T07:04:24.410Z,5.38
2022-08-14T07:06:54.792Z,5.30
2022-08-14T07:09:24.206Z,5.38
2022-08-14T07:11:52.250Z,5.30
2022-08-14T07:14:19.814Z,5.45
2022-08-14T07:16:47.450Z,5.80
2022-08-14T07:19:20.993Z,5.32
2022-08-14T07:21:49.158Z,5.32
2022-08-14T07:24:26.282Z,5.05
2022-08-14T07:26:59.237Z,5.22
2022-08-14T07:29:28.803Z,5.18
2022-08-14T07:31:56.939Z,5.30
2022-08-14T07:34:26.429Z,5.40
2022-08-14T07:37:04.779Z,5.10
2022-08-14T07:39:34.576Z,5.65
2022-08-14T07:42:02.992Z,5.13
2022-08-14T07:44:35.567Z,5.25
2022-08-14T07:47:03.999Z,5.22
2022-08-14T07:49:34.631Z,5.30
2022-08-14T07:52:03.802Z,5.75
2022-08-14T07:54:31.975Z,5.85
2022-08-14T07:57:00.606Z,5.45
2022-08-14T07:59:41.420Z,5.38
2022-08-14T08:02:19.557Z,5.13
2022-08-14T08:04:54.275Z,4.78
2022-08-14T08:07:23.100Z,5.32
2022-08-14T08:09:56.582Z,5.40
2022-08-14T08:12:29.460Z,5.32
2022-08-14T08:15:02.654Z,5.20
2022-08-14T08:17:38.167Z,5.35
2022-08-14T08:20:11.721Z,4.95
2022-08-14T08:22:40.756Z,5.00
2022-08-14T08:25:11.609Z,5.20
2022-08-14T08:27:44.548Z,4.53
2022-08-14T08:30:13.838Z,4.93
2022-08-14T08:32:42.936Z,5.38
2022-08-14T08:35:21.270Z,5.13
2022-08-14T08:37:53.677Z,5.13
2022-08-14T08:40:32.434Z,4.80
2022-08-14T08:43:00.300Z,4.72
2022-08-14T08:45:29.183Z,4.82
2022-08-14T08:47:56.875Z,5.03
2022-08-14T08:52:59.958Z,4.80
2022-08-14T08:55:32.721Z,4.85
2022-08-14T08:58:04.417Z,4.80
2022-08-14T09:00:34.755Z,4.50
2022-08-14T09:03:06.612Z,5.22
2022-08-14T09:05:50.466Z,5.00
2022-08-14T09:08:30.851Z,4.95
2022-08-14T09:11:02.593Z,4.70
2022-08-14T09:13:48.189Z,4.85
2022-08-14T09:16:20.624Z,4.28
2022-08-14T09:18:49.372Z,4.50
2022-08-14T09:21:18.626Z,4.38
2022-08-14T09:24:26.980Z,4.70
2022-08-14T09:26:35.672Z,4.55
2022-08-14T09:29:06.221Z,4.38
2022-08-14T09:31:42.503Z,4.20
2022-08-14T09:34:31.618Z,4.32
2022-08-14T09:37:20.229Z,4.53
2022-08-14T09:39:58.688Z,4.10
2022-08-14T09:42:58.859Z,4.20
2022-08-14T09:45:39.996Z,4.10
2022-08-14T09:48:30.141Z,4.30
2022-08-14T09:54:12.685Z,4.43
2022-08-14T09:56:30.498Z,4.55
2022-08-14T09:59:00.232Z,4.20
2022-08-14T10:01:40.141Z,3.90
2022-08-14T10:04:35.799Z,3.80
2022-08-14T10:07:05.257Z,3.80
2022-08-14T10:09:34.935Z,3.95
2022-08-14T10:12:04.739Z,3.60
2022-08-14T10:14:36.943Z,3.95
2022-08-14T10:17:08.417Z,3.72
2022-08-14T10:19:37.096Z,3.60
2022-08-14T10:23:14.896Z,3.60
2022-08-14T10:24:56.686Z,3.45
2022-08-14T10:27:26.533Z,4.40
2022-08-14T10:29:58.115Z,3.92
2022-08-14T10:32:28.406Z,3.60
2022-08-14T10:35:06.737Z,3.50
2022-08-14T10:37:44.761Z,3.53
2022-08-14T10:40:38.490Z,3.80
2022-08-14T10:43:04.256Z,3.30
2022-08-14T10:45:35.761Z,3.35
2022-08-14T10:48:24.442Z,3.22
2022-08-14T10:51:04.883Z,3.33
2022-08-14T10:53:39.880Z,3.42
2022-08-14T10:56:21.430Z,3.45
2022-08-14T10:59:02.824Z,3.50
2022-08-14T11:01:32.659Z,3.50
2022-08-14T11:04:25.199Z,3.20
2022-08-14T11:06:56.072Z,3.28
2022-08-14T11:09:26.033Z,3.22
2022-08-14T11:12:40.196Z,2.90
2022-08-14T11:14:58.905Z,3.00
2022-08-14T11:17:28.525Z,2.90
2022-08-14T11:20:01.801Z,3.20
2022-08-14T11:22:55.674Z,3.25
2022-08-14T11:25:21.236Z,2.92
2022-08-14T11:27:52.439Z,3.05
2022-08-14T11:30:50.076Z,3.10
2022-08-14T11:33:09.970Z,3.10
2022-08-14T11:35:47.158Z,3.10
2022-08-14T11:38:19.859Z,2.92
2022-08-14T11:40:48.438Z,3.25
2022-08-14T11:43:17.691Z,3.13
2022-08-14T11:45:48.757Z,3.00
2022-08-14T11:48:58.993Z,2.97
2022-08-14T11:51:13.675Z,2.92
2022-08-14T11:53:43.508Z,3.00
2022-08-14T11:56:13.356Z,2.85
2022-08-14T11:58:42.454Z,3.20
2022-08-14T12:01:11.166Z,3.28
2022-08-14T12:03:46.938Z,2.67
2022-08-14T12:06:29.358Z,2.60
2022-08-14T12:09:03.526Z,2.55
2022-08-14T12:11:43.364Z,2.75
2022-08-14T12:14:30.950Z,3.20
2022-08-14T12:17:05.104Z,2.80
2022-08-14T12:19:33.737Z,2.70
2022-08-14T12:22:02.951Z,2.67
2022-08-14T12:24:36.382Z,2.67
2022-08-14T12:27:04.931Z,2.60
2022-08-14T12:29:36.189Z,2.70
2022-08-14T12:32:06.624Z,2.60
2022-08-14T12:34:37.420Z,2.40
2022-08-14T12:37:09.606Z,2.70
2022-08-14T12:39:40.158Z,2.63
2022-08-14T12:42:09.180Z,2.58
2022-08-14T12:44:42.857Z,2.53
2022-08-14T12:47:15.248Z,2.60
2022-08-14T12:49:52.847Z,2.33
2022-08-14T12:52:41.764Z,2.17
2022-08-14T12:55:20.789Z,2.33
2022-08-14T12:57:53.411Z,2.30
2022-08-14T13:00:24.706Z,2.50
2022-08-14T13:02:55.363Z,2.55
2022-08-14T13:05:25.075Z,2.25
2022-08-14T13:07:55.258Z,2.28
2022-08-14T13:10:46.711Z,2.28
2022-08-14T13:13:15.191Z,2.08
2022-08-14T13:15:46.780Z,2.35
2022-08-14T13:18:16.741Z,2.30
2022-08-14T13:20:51.439Z,2.30
2022-08-14T13:23:31.615Z,2.45
2022-08-14T13:26:00.327Z,2.60
2022-08-14T13:28:33.103Z,2.40
2022-08-14T13:31:11.113Z,2.45
2022-08-14T13:33:40.714Z,2.45
2022-08-14T13:36:18.223Z,2.25
2022-08-14T13:38:53.783Z,2.20
2022-08-14T13:41:31.910Z,2.35
2022-08-14T13:44:04.306Z,2.28
2022-08-14T13:46:33.756Z,2.50
2022-08-14T13:49:02.334Z,2.17
2022-08-14T13:51:37.614Z,2.20
2022-08-14T13:54:10.997Z,2.28
2022-08-14T13:56:42.202Z,2.08
2022-08-14T13:59:10.561Z,2.03
2022-08-14T14:01:43.476Z,2.30
2022-08-14T14:04:19.333Z,2.30
2022-08-14T14:06:49.291Z,2.40
2022-08-14T14:09:21.959Z,2.55
2022-08-14T14:11:52.814Z,2.40
2022-08-14T14:14:44.988Z,2.33
2022-08-14T14:17:14.141Z,2.28
2022-08-14T14:19:43.247Z,2.17
2022-08-14T14:22:13.225Z,2.45
2022-08-14T14:25:00.768Z,2.35
2022-08-14T14:27:40.544Z,2.75
2022-08-14T14:30:45.968Z,2.35
2022-08-14T14:33:04.447Z,2.30
2022-08-14T14:35:34.632Z,2.42
2022-08-14T14:38:09.534Z,2.30
2022-08-14T14:40:52.729Z,2.38
2022-08-14T14:43:26.165Z,2.50
2022-08-14T14:45:56.231Z,2.70
2022-08-14T14:48:31.140Z,2.50
2022-08-14T14:51:01.279Z,2.60
2022-08-14T14:53:39.276Z,2.65
2022-08-14T14:56:50.220Z,2.15
2022-08-14T14:58:57.053Z,2.50
2022-08-14T15:01:26.080Z,2.50
2022-08-14T15:03:58.904Z,2.53
2022-08-14T15:06:28.933Z,2.50
2022-08-14T15:09:00.097Z,2.45
2022-08-14T15:11:30.329Z,2.58
2022-08-14T15:14:00.099Z,2.45
2022-08-14T15:16:27.959Z,2.50
2022-08-14T15:18:56.832Z,2.63
2022-08-14T15:21:25.245Z,2.60
2022-08-14T15:23:55.330Z,2.30
2022-08-14T15:26:31.987Z,2.88
2022-08-14T15:29:04.967Z,2.80
2022-08-14T15:31:36.092Z,2.55
2022-08-14T15:34:44.603Z,2.55
2022-08-14T15:37:00.553Z,2.50
2022-08-14T15:39:34.020Z,2.50
2022-08-14T15:42:15.722Z,3.17
2022-08-14T15:44:57.331Z,2.88
2022-08-14T15:47:28.043Z,2.60
2022-08-14T15:49:59.710Z,2.30
2022-08-14T15:52:32.826Z,2.13
2022-08-14T15:55:04.282Z,2.40
2022-08-14T15:57:32.225Z,2.40
2022-08-14T16:00:37.794Z,2.50
2022-08-14T16:03:08.676Z,2.42
2022-08-14T16:05:38.895Z,2.58
2022-08-14T16:08:26.842Z,2.35
2022-08-14T16:10:56.481Z,2.25
2022-08-14T16:13:39.431Z,2.58
2022-08-14T16:16:47.138Z,2.30
2022-08-14T16:19:00.811Z,2.58
2022-08-14T16:21:31.650Z,2.33
2022-08-14T16:24:01.393Z,2.50
2022-08-14T16:26:29.809Z,2.47
2022-08-14T16:29:06.308Z,2.10
2022-08-14T16:31:36.630Z,2.35
2022-08-14T16:34:44.692Z,2.58
2022-08-14T16:36:54.326Z,2.40
2022-08-14T16:39:24.254Z,2.50
2022-08-14T16:41:53.334Z,2.60
2022-08-14T16:44:33.924Z,2.42
2022-08-14T16:47:04.203Z,2.30
2022-08-14T16:50:03.365Z,2.42
2022-08-14T16:52:25.813Z,2.58
2022-08-14T16:55:13.746Z,2.30
2022-08-14T16:57:50.067Z,2.47
2022-08-14T17:00:28.831Z,2.58
2022-08-14T17:03:01.864Z,2.53
2022-08-14T17:05:29.446Z,2.70
2022-08-14T17:08:31.753Z,2.42
2022-08-14T17:11:10.928Z,2.22
2022-08-14T17:13:59.255Z,2.30
2022-08-14T17:16:35.878Z,2.22
2022-08-14T17:19:05.560Z,2.40
2022-08-14T17:21:41.103Z,2.42
2022-08-14T17:24:55.769Z,2.28
2022-08-14T17:27:04.422Z,2.40
2022-08-14T17:29:35.073Z,2.60
2022-08-14T17:32:29.587Z,2.22
2022-08-14T17:38:38.404Z,2.30
2022-08-14T17:41:19.254Z,2.60
2022-08-14T17:43:46.805Z,2.22
2022-08-14T17:46:49.959Z,2.45
2022-08-14T17:49:24.599Z,2.17
2022-08-14T17:52:01.582Z,2.38
2022-08-14T17:54:34.829Z,2.33
2022-08-14T17:57:12.908Z,2.60
2022-08-14T17:59:44.402Z,2.40
2022-08-14T18:02:16.465Z,2.42
2022-08-14T18:04:45.423Z,2.67
2022-08-14T18:08:00.407Z,2.53
2022-08-14T18:10:52.704Z,2.70
2022-08-14T18:12:58.845Z,2.78
2022-08-14T18:15:33.733Z,3.08
2022-08-14T18:18:07.011Z,2.50
2022-08-14T18:21:43.106Z,2.55
2022-08-14T18:23:24.972Z,2.67
2022-08-14T18:25:54.664Z,2.72
2022-08-14T18:28:51.433Z,2.70
2022-08-14T18:31:43.568Z,2.67
2022-08-14T18:34:32.066Z,2.53
2022-08-14T18:37:13.948Z,2.83
2022-08-14T18:40:02.001Z,2.80
2022-08-14T18:42:45.784Z,2.90
2022-08-14T18:45:18.951Z,2.55
2022-08-14T18:50:48.711Z,2.65
2022-08-14T18:53:20.338Z,2.47
2022-08-14T18:55:55.177Z,2.60
2022-08-14T18:58:27.599Z,2.55
2022-08-14T19:01:01.421Z,2.80
2022-08-14T19:03:47.132Z,2.55
2022-08-14T19:06:16.739Z,2.40
2022-08-14T19:08:46.855Z,2.60
2022-08-14T19:11:46.736Z,2.60
2022-08-14T19:14:46.041Z,2.35
2022-08-14T19:18:14.403Z,2.70
2022-08-14T19:20:47.772Z,2.53
2022-08-14T19:23:18.543Z,2.55
2022-08-14T19:25:52.248Z,2.53
2022-08-14T19:28:31.705Z,2.55
2022-08-14T19:31:37.114Z,2.65
2022-08-14T19:34:29.840Z,2.65
2022-08-14T19:37:05.617Z,2.60
2022-08-14T19:39:48.032Z,2.83
2022-08-14T19:42:28.387Z,2.95
2022-08-14T19:44:58.793Z,2.95
2022-08-14T19:47:38.597Z,2.50
2022-08-14T19:50:37.806Z,3.00
2022-08-14T19:53:11.264Z,2.65
2022-08-14T19:55:45.723Z,2.50
2022-08-14T19:58:14.105Z,2.63
2022-08-14T20:00:52.226Z,2.47
2022-08-14T20:03:25.005Z,2.85
2022-08-14T20:06:05.318Z,2.60
2022-08-14T20:10:58.349Z,2.50
2022-08-14T20:12:02.127Z,3.10
2022-08-14T20:14:20.762Z,3.03
2022-08-14T20:16:54.606Z,2.78
2022-08-14T20:19:28.602Z,2.75
2022-08-14T20:22:04.628Z,2.63
2022-08-14T20:24:47.715Z,2.45
2022-08-14T20:27:34.315Z,2.47
2022-08-14T20:30:32.830Z,2.85
2022-08-14T20:33:02.499Z,2.70
2022-08-14T20:35:35.730Z,2.70
2022-08-14T20:38:31.778Z,2.60
2022-08-14T20:40:57.263Z,3.00
2022-08-14T20:43:45.588Z,2.35
2022-08-14T20:46:16.184Z,2.35
2022-08-14T20:48:57.484Z,2.80
2022-08-14T20:51:26.827Z,2.50
2022-08-14T20:54:08.605Z,2.33
2022-08-14T20:56:40.692Z,2.80
2022-08-14T20:59:15.421Z,2.70
2022-08-14T21:01:46.321Z,2.60
2022-08-14T21:04:27.263Z,2.60
2022-08-14T21:07:25.530Z,2.70
2022-08-14T21:10:06.405Z,2.65
2022-08-14T21:12:36.006Z,2.70
2022-08-14T21:15:10.091Z,2.58
2022-08-14T21:17:41.543Z,2.60
2022-08-14T21:20:25.234Z,2.50
2022-08-14T21:22:56.581Z,2.55
2022-08-14T21:25:28.934Z,2.40
2022-08-14T21:28:00.055Z,2.72
2022-08-14T21:30:51.961Z,2.80
2022-08-14T21:33:20.471Z,2.55
2022-08-14T21:35:49.690Z,2.40
2022-08-14T21:38:33.705Z,2.53
2022-08-14T21:41:41.826Z,2.60
2022-08-14T21:44:01.570Z,2.80
2022-08-14T21:46:30.100Z,2.83
2022-08-14T21:48:59.690Z,2.58
2022-08-14T21:51:54.930Z,2.60
2022-08-14T21:54:32.077Z,2.88
2022-08-14T21:57:13.624Z,2.60
2022-08-14T21:59:43.395Z,2.65
2022-08-14T22:02:32.202Z,2.90
2022-08-14T22:05:03.480Z,2.45
2022-08-14T22:07:32.302Z,2.95
2022-08-14T22:10:02.465Z,2.90
2022-08-14T22:12:57.854Z,2.67
2022-08-14T22:15:22.943Z,2.58
2022-08-14T22:17:54.573Z,2.80
2022-08-14T22:20:27.976Z,2.60
2022-08-14T22:22:56.621Z,2.80
2022-08-14T22:25:34.131Z,3.10
2022-08-14T22:28:04.162Z,2.45
2022-08-14T22:30:32.457Z,2.70
2022-08-14T22:33:00.550Z,2.65
2022-08-14T22:35:29.615Z,3.05
2022-08-14T22:38:34.765Z,2.65
2022-08-14T22:41:07.524Z,2.90
2022-08-14T22:43:37.278Z,2.60
2022-08-14T22:46:15.124Z,2.70
2022-08-14T22:48:48.425Z,2.83
2022-08-14T22:51:19.886Z,2.85
2022-08-14T22:53:49.195Z,2.70
2022-08-14T22:56:22.043Z,2.90
2022-08-14T22:58:57.442Z,3.03
2022-08-14T23:01:56.222Z,2.90
2022-08-14T23:04:35.985Z,3.20
2022-08-14T23:07:22.249Z,3.10
2022-08-14T23:09:56.240Z,3.05
2022-08-14T23:12:28.992Z,2.95
2022-08-14T23:14:57.846Z,2.70
2022-08-14T23:17:27.186Z,2.97
2022-08-14T23:19:56.677Z,3.13
2022-08-14T23:22:26.410Z,2.97
2022-08-14T23:24:57.941Z,3.20
2022-08-14T23:27:32.035Z,2.90
2022-08-14T23:30:31.920Z,3.15
2022-08-14T23:33:03.699Z,3.13
2022-08-14T23:35:33.206Z,3.15
2022-08-14T23:38:05.444Z,3.17
2022-08-14T23:40:35.702Z,3.28
2022-08-14T23:43:08.250Z,3.45
2022-08-14T23:45:39.236Z,3.20
2022-08-14T23:48:09.831Z,3.10
2022-08-14T23:50:41.279Z,3.20
2022-08-14T23:53:28.528Z,2.78
2022-08-14T23:56:12.392Z,3.22
2022-08-14T23:58:42.190Z,2.88
